sensor_id;sensor_type;location;lat;lon;timestamp;pressure;altitude;pressure_sealevel;temperature;humidity
3917;BME280;1973;50.518;7.318;2023-04-19T00:00:04;101758.81;;;13.29;93.86
3917;BME280;1973;50.518;7.318;2023-04-19T00:02:34;101762.44;;;13.30;93.77
3917;BME280;1973;50.518;7.318;2023-04-19T00:05:01;101763.50;;;13.29;94.07
3917;BME280;1973;50.518;7.318;2023-04-19T00:07:28;101760.72;;;13.29;94.31
3917;BME280;1973;50.518;7.318;2023-04-19T00:09:54;101760.94;;;13.27;94.58
3917;BME280;1973;50.518;7.318;2023-04-19T00:12:21;101759.88;;;13.28;94.64
3917;BME280;1973;50.518;7.318;2023-04-19T00:14:47;101759.44;;;13.25;95.47
3917;BME280;1973;50.518;7.318;2023-04-19T00:17:14;101754.75;;;13.25;96.44
3917;BME280;1973;50.518;7.318;2023-04-19T00:19:40;101759.63;;;13.23;96.13
3917;BME280;1973;50.518;7.318;2023-04-19T00:22:07;101750.50;;;13.23;96.57
3917;BME280;1973;50.518;7.318;2023-04-19T00:24:33;101749.84;;;13.21;96.97
3917;BME280;1973;50.518;7.318;2023-04-19T00:27:00;101755.16;;;13.15;97.20
3917;BME280;1973;50.518;7.318;2023-04-19T00:29:27;101743.47;;;13.13;97.71
3917;BME280;1973;50.518;7.318;2023-04-19T00:31:54;101735.38;;;13.12;97.85
3917;BME280;1973;50.518;7.318;2023-04-19T00:34:20;101742.16;;;13.09;97.66
3917;BME280;1973;50.518;7.318;2023-04-19T00:36:46;101745.31;;;13.06;98.31
3917;BME280;1973;50.518;7.318;2023-04-19T00:39:13;101742.31;;;13.01;98.15
3917;BME280;1973;50.518;7.318;2023-04-19T00:41:40;101738.69;;;12.94;98.68
3917;BME280;1973;50.518;7.318;2023-04-19T00:44:07;101734.44;;;12.92;98.99
3917;BME280;1973;50.518;7.318;2023-04-19T00:46:35;101734.88;;;12.89;99.33
3917;BME280;1973;50.518;7.318;2023-04-19T00:49:01;101738.25;;;12.84;99.40
3917;BME280;1973;50.518;7.318;2023-04-19T00:51:28;101736.94;;;12.80;99.39
3917;BME280;1973;50.518;7.318;2023-04-19T00:53:55;101736.50;;;12.77;99.56
3917;BME280;1973;50.518;7.318;2023-04-19T00:56:22;101732.25;;;12.74;99.69
3917;BME280;1973;50.518;7.318;2023-04-19T00:58:50;101724.78;;;12.68;100.00
3917;BME280;1973;50.518;7.318;2023-04-19T01:01:16;101733.91;;;12.62;100.00
3917;BME280;1973;50.518;7.318;2023-04-19T01:03:45;101728.34;;;12.55;100.00
3917;BME280;1973;50.518;7.318;2023-04-19T01:06:13;101731.72;;;12.51;100.00
3917;BME280;1973;50.518;7.318;2023-04-19T01:08:39;101721.06;;;12.41;100.00
3917;BME280;1973;50.518;7.318;2023-04-19T01:11:06;101723.59;;;12.36;100.00
3917;BME280;1973;50.518;7.318;2023-04-19T01:13:35;101719.72;;;12.31;100.00
3917;BME280;1973;50.518;7.318;2023-04-19T01:16:02;101734.16;;;12.26;100.00
3917;BME280;1973;50.518;7.318;2023-04-19T01:18:28;101723.31;;;12.25;100.00
3917;BME280;1973;50.518;7.318;2023-04-19T01:21:00;101727.13;;;12.24;100.00
3917;BME280;1973;50.518;7.318;2023-04-19T01:23:27;101718.81;;;12.24;100.00
3917;BME280;1973;50.518;7.318;2023-04-19T01:25:53;101726.94;;;12.25;100.00
3917;BME280;1973;50.518;7.318;2023-04-19T01:28:20;101724.34;;;12.24;100.00
3917;BME280;1973;50.518;7.318;2023-04-19T01:30:46;101714.38;;;12.23;100.00
3917;BME280;1973;50.518;7.318;2023-04-19T01:33:16;101707.34;;;12.20;100.00
3917;BME280;1973;50.518;7.318;2023-04-19T01:35:42;101713.94;;;12.19;100.00
3917;BME280;1973;50.518;7.318;2023-04-19T01:38:09;101709.66;;;12.16;100.00
3917;BME280;1973;50.518;7.318;2023-04-19T01:40:35;101710.06;;;12.13;100.00
3917;BME280;1973;50.518;7.318;2023-04-19T01:43:01;101719.63;;;12.11;100.00
3917;BME280;1973;50.518;7.318;2023-04-19T01:45:28;101710.91;;;12.07;100.00
3917;BME280;1973;50.518;7.318;2023-04-19T01:47:54;101710.44;;;12.04;100.00
3917;BME280;1973;50.518;7.318;2023-04-19T01:50:21;101710.19;;;11.99;100.00
3917;BME280;1973;50.518;7.318;2023-04-19T01:52:48;101708.03;;;11.94;100.00
3917;BME280;1973;50.518;7.318;2023-04-19T01:55:14;101703.34;;;11.88;100.00
3917;BME280;1973;50.518;7.318;2023-04-19T01:57:41;101703.75;;;11.85;100.00
3917;BME280;1973;50.518;7.318;2023-04-19T02:00:08;101696.06;;;11.81;100.00
3917;BME280;1973;50.518;7.318;2023-04-19T02:02:36;101699.84;;;11.73;100.00
3917;BME280;1973;50.518;7.318;2023-04-19T02:05:05;101701.19;;;11.62;100.00
3917;BME280;1973;50.518;7.318;2023-04-19T02:07:31;101693.94;;;11.55;100.00
3917;BME280;1973;50.518;7.318;2023-04-19T02:09:58;101689.81;;;11.44;100.00
3917;BME280;1973;50.518;7.318;2023-04-19T02:12:26;101687.19;;;11.36;100.00
3917;BME280;1973;50.518;7.318;2023-04-19T02:14:54;101690.94;;;11.29;100.00
3917;BME280;1973;50.518;7.318;2023-04-19T02:17:24;101683.22;;;11.17;100.00
3917;BME280;1973;50.518;7.318;2023-04-19T02:19:51;101677.19;;;11.07;100.00
3917;BME280;1973;50.518;7.318;2023-04-19T02:22:18;101686.84;;;10.97;100.00
3917;BME280;1973;50.518;7.318;2023-04-19T02:24:45;101685.44;;;10.86;100.00
3917;BME280;1973;50.518;7.318;2023-04-19T02:27:12;101701.41;;;10.76;100.00
3917;BME280;1973;50.518;7.318;2023-04-19T02:29:39;101689.03;;;10.65;100.00
3917;BME280;1973;50.518;7.318;2023-04-19T02:32:06;101692.09;;;10.56;100.00
3917;BME280;1973;50.518;7.318;2023-04-19T02:34:33;101688.78;;;10.46;100.00
3917;BME280;1973;50.518;7.318;2023-04-19T02:37:00;101688.22;;;10.36;100.00
3917;BME280;1973;50.518;7.318;2023-04-19T02:39:27;101697.84;;;10.25;100.00
3917;BME280;1973;50.518;7.318;2023-04-19T02:41:54;101688.81;;;10.16;100.00
3917;BME280;1973;50.518;7.318;2023-04-19T02:44:21;101685.94;;;10.10;100.00
3917;BME280;1973;50.518;7.318;2023-04-19T02:46:51;101688.59;;;10.03;100.00
3917;BME280;1973;50.518;7.318;2023-04-19T02:49:18;101703.13;;;9.97;100.00
3917;BME280;1973;50.518;7.318;2023-04-19T02:51:46;101692.88;;;9.91;100.00
3917;BME280;1973;50.518;7.318;2023-04-19T02:54:13;101690.22;;;9.83;100.00
3917;BME280;1973;50.518;7.318;2023-04-19T02:56:40;101700.94;;;9.78;100.00
3917;BME280;1973;50.518;7.318;2023-04-19T02:59:06;101697.88;;;9.73;100.00
3917;BME280;1973;50.518;7.318;2023-04-19T03:01:32;101694.50;;;9.71;100.00
3917;BME280;1973;50.518;7.318;2023-04-19T03:03:59;101695.22;;;9.65;100.00
3917;BME280;1973;50.518;7.318;2023-04-19T03:06:26;101693.88;;;9.61;100.00
3917;BME280;1973;50.518;7.318;2023-04-19T03:08:52;101686.41;;;9.55;100.00
3917;BME280;1973;50.518;7.318;2023-04-19T03:11:18;101688.66;;;9.51;100.00
3917;BME280;1973;50.518;7.318;2023-04-19T03:13:46;101690.94;;;9.48;100.00
3917;BME280;1973;50.518;7.318;2023-04-19T03:16:12;101685.13;;;9.43;100.00
3917;BME280;1973;50.518;7.318;2023-04-19T03:18:39;101693.28;;;9.36;100.00
3917;BME280;1973;50.518;7.318;2023-04-19T03:21:05;101687.97;;;9.35;100.00
3917;BME280;1973;50.518;7.318;2023-04-19T03:23:34;101686.63;;;9.31;100.00
3917;BME280;1973;50.518;7.318;2023-04-19T03:26:01;101688.03;;;9.26;100.00
3917;BME280;1973;50.518;7.318;2023-04-19T03:28:27;101693.72;;;9.25;100.00
3917;BME280;1973;50.518;7.318;2023-04-19T03:30:53;101695.81;;;9.23;100.00
3917;BME280;1973;50.518;7.318;2023-04-19T03:33:20;101697.00;;;9.20;100.00
3917;BME280;1973;50.518;7.318;2023-04-19T03:35:47;101694.47;;;9.19;100.00
3917;BME280;1973;50.518;7.318;2023-04-19T03:38:13;101693.59;;;9.18;100.00
3917;BME280;1973;50.518;7.318;2023-04-19T03:40:39;101694.47;;;9.19;100.00
3917;BME280;1973;50.518;7.318;2023-04-19T03:43:06;101696.19;;;9.20;100.00
3917;BME280;1973;50.518;7.318;2023-04-19T03:45:32;101680.91;;;9.17;100.00
3917;BME280;1973;50.518;7.318;2023-04-19T03:47:59;101676.81;;;9.13;100.00
3917;BME280;1973;50.518;7.318;2023-04-19T03:50:28;101680.78;;;9.11;100.00
3917;BME280;1973;50.518;7.318;2023-04-19T03:52:54;101682.88;;;9.09;100.00
3917;BME280;1973;50.518;7.318;2023-04-19T03:55:21;101682.88;;;9.09;100.00
3917;BME280;1973;50.518;7.318;2023-04-19T03:57:47;101681.53;;;9.05;100.00
3917;BME280;1973;50.518;7.318;2023-04-19T04:00:14;101680.69;;;9.04;100.00
3917;BME280;1973;50.518;7.318;2023-04-19T04:02:41;101673.47;;;9.03;100.00
3917;BME280;1973;50.518;7.318;2023-04-19T04:05:08;101673.47;;;9.03;100.00
3917;BME280;1973;50.518;7.318;2023-04-19T04:07:35;101681.88;;;9.02;100.00
3917;BME280;1973;50.518;7.318;2023-04-19T04:10:01;101675.91;;;8.98;100.00
3917;BME280;1973;50.518;7.318;2023-04-19T04:12:28;101685.19;;;8.97;100.00
3917;BME280;1973;50.518;7.318;2023-04-19T04:14:54;101684.50;;;8.95;100.00
3917;BME280;1973;50.518;7.318;2023-04-19T04:17:21;101689.34;;;8.93;100.00
3917;BME280;1973;50.518;7.318;2023-04-19T04:19:49;101681.66;;;8.89;100.00
3917;BME280;1973;50.518;7.318;2023-04-19T04:22:16;101690.06;;;8.87;100.00
3917;BME280;1973;50.518;7.318;2023-04-19T04:24:42;101689.56;;;8.84;100.00
3917;BME280;1973;50.518;7.318;2023-04-19T04:27:09;101692.50;;;8.82;100.00
3917;BME280;1973;50.518;7.318;2023-04-19T04:29:36;101695.81;;;8.77;100.00
3917;BME280;1973;50.518;7.318;2023-04-19T04:32:05;101698.06;;;8.74;100.00
3917;BME280;1973;50.518;7.318;2023-04-19T04:34:33;101697.72;;;8.69;100.00
3917;BME280;1973;50.518;7.318;2023-04-19T04:37:02;101703.59;;;8.66;100.00
3917;BME280;1973;50.518;7.318;2023-04-19T04:39:29;101697.63;;;8.62;100.00
3917;BME280;1973;50.518;7.318;2023-04-19T04:41:55;101702.25;;;8.62;100.00
3917;BME280;1973;50.518;7.318;2023-04-19T04:44:24;101693.50;;;8.58;100.00
3917;BME280;1973;50.518;7.318;2023-04-19T04:46:51;101695.59;;;8.56;100.00
3917;BME280;1973;50.518;7.318;2023-04-19T04:49:17;101701.25;;;8.55;100.00
3917;BME280;1973;50.518;7.318;2023-04-19T04:51:44;101692.16;;;8.54;100.00
3917;BME280;1973;50.518;7.318;2023-04-19T04:54:11;101694.06;;;8.54;100.00
3917;BME280;1973;50.518;7.318;2023-04-19T04:56:37;101694.06;;;8.54;100.00
3917;BME280;1973;50.518;7.318;2023-04-19T04:59:03;101698.34;;;8.56;100.00
3917;BME280;1973;50.518;7.318;2023-04-19T05:01:30;101703.63;;;8.58;100.00
3917;BME280;1973;50.518;7.318;2023-04-19T05:03:57;101697.13;;;8.59;100.00
3917;BME280;1973;50.518;7.318;2023-04-19T05:06:24;101702.59;;;8.59;100.00
3917;BME280;1973;50.518;7.318;2023-04-19T05:08:51;101695.41;;;8.58;100.00
3917;BME280;1973;50.518;7.318;2023-04-19T05:11:19;101694.38;;;8.59;100.00
3917;BME280;1973;50.518;7.318;2023-04-19T05:13:45;101701.59;;;8.60;100.00
3917;BME280;1973;50.518;7.318;2023-04-19T05:16:12;101692.97;;;8.63;100.00
3917;BME280;1973;50.518;7.318;2023-04-19T05:18:38;101689.88;;;8.66;100.00
3917;BME280;1973;50.518;7.318;2023-04-19T05:21:05;101701.16;;;8.71;100.00
3917;BME280;1973;50.518;7.318;2023-04-19T05:23:33;101700.81;;;8.74;100.00
3917;BME280;1973;50.518;7.318;2023-04-19T05:25:59;101691.16;;;8.78;100.00
3917;BME280;1973;50.518;7.318;2023-04-19T05:28:26;101693.38;;;8.83;100.00
3917;BME280;1973;50.518;7.318;2023-04-19T05:30:52;101697.28;;;8.88;100.00
3917;BME280;1973;50.518;7.318;2023-04-19T05:33:19;101696.56;;;8.94;100.00
3917;BME280;1973;50.518;7.318;2023-04-19T05:35:45;101692.03;;;9.01;100.00
3917;BME280;1973;50.518;7.318;2023-04-19T05:38:12;101695.56;;;9.10;100.00
3917;BME280;1973;50.518;7.318;2023-04-19T05:40:38;101688.47;;;9.15;100.00
3917;BME280;1973;50.518;7.318;2023-04-19T05:43:05;101681.22;;;9.22;100.00
3917;BME280;1973;50.518;7.318;2023-04-19T05:45:31;101683.19;;;9.28;100.00
3917;BME280;1973;50.518;7.318;2023-04-19T05:47:58;101692.78;;;9.33;100.00
3917;BME280;1973;50.518;7.318;2023-04-19T05:50:24;101688.47;;;9.38;100.00
3917;BME280;1973;50.518;7.318;2023-04-19T05:52:51;101679.63;;;9.43;100.00
3917;BME280;1973;50.518;7.318;2023-04-19T05:55:17;101678.91;;;9.49;100.00
3917;BME280;1973;50.518;7.318;2023-04-19T05:57:44;101680.25;;;9.53;100.00
3917;BME280;1973;50.518;7.318;2023-04-19T06:00:10;101674.38;;;9.56;100.00
3917;BME280;1973;50.518;7.318;2023-04-19T06:02:37;101675.69;;;9.60;100.00
3917;BME280;1973;50.518;7.318;2023-04-19T06:05:04;101675.31;;;9.63;100.00
3917;BME280;1973;50.518;7.318;2023-04-19T06:07:36;101678.72;;;9.65;100.00
3917;BME280;1973;50.518;7.318;2023-04-19T06:10:19;101684.53;;;9.70;100.00
3917;BME280;1973;50.518;7.318;2023-04-19T06:12:45;101674.84;;;9.74;100.00
3917;BME280;1973;50.518;7.318;2023-04-19T06:15:12;101680.66;;;9.79;100.00
3917;BME280;1973;50.518;7.318;2023-04-19T06:17:38;101690.03;;;9.85;100.00
3917;BME280;1973;50.518;7.318;2023-04-19T06:20:06;101679.97;;;9.92;100.00
3917;BME280;1973;50.518;7.318;2023-04-19T06:22:33;101680.06;;;9.98;100.00
3917;BME280;1973;50.518;7.318;2023-04-19T06:25:00;101678.94;;;10.07;100.00
3917;BME280;1973;50.518;7.318;2023-04-19T06:27:26;101686.41;;;10.13;100.00
3917;BME280;1973;50.518;7.318;2023-04-19T06:29:53;101680.19;;;10.19;100.00
3917;BME280;1973;50.518;7.318;2023-04-19T06:32:19;101693.00;;;10.27;100.00
3917;BME280;1973;50.518;7.318;2023-04-19T06:34:46;101687.38;;;10.35;100.00
3917;BME280;1973;50.518;7.318;2023-04-19T06:37:12;101679.00;;;10.43;100.00
3917;BME280;1973;50.518;7.318;2023-04-19T06:39:38;101680.78;;;10.51;100.00
3917;BME280;1973;50.518;7.318;2023-04-19T06:42:05;101688.28;;;10.57;100.00
3917;BME280;1973;50.518;7.318;2023-04-19T06:44:32;101686.66;;;10.62;100.00
3917;BME280;1973;50.518;7.318;2023-04-19T06:46:58;101685.69;;;10.70;100.00
3917;BME280;1973;50.518;7.318;2023-04-19T06:49:25;101689.53;;;10.75;100.00
3917;BME280;1973;50.518;7.318;2023-04-19T06:51:51;101685.19;;;10.81;100.00
3917;BME280;1973;50.518;7.318;2023-04-19T06:54:18;101682.69;;;10.86;100.00
3917;BME280;1973;50.518;7.318;2023-04-19T06:56:47;101677.03;;;10.94;100.00
3917;BME280;1973;50.518;7.318;2023-04-19T06:59:16;101681.78;;;11.00;100.00
3917;BME280;1973;50.518;7.318;2023-04-19T07:01:44;101673.75;;;11.05;100.00
3917;BME280;1973;50.518;7.318;2023-04-19T07:04:12;101673.00;;;11.11;100.00
3917;BME280;1973;50.518;7.318;2023-04-19T07:06:39;101664.03;;;11.09;100.00
3917;BME280;1973;50.518;7.318;2023-04-19T07:09:06;101667.53;;;11.18;100.00
3917;BME280;1973;50.518;7.318;2023-04-19T07:11:33;101668.84;;;11.22;100.00
3917;BME280;1973;50.518;7.318;2023-04-19T07:14:00;101657.69;;;11.30;100.00
3917;BME280;1973;50.518;7.318;2023-04-19T07:16:27;101663.88;;;11.39;100.00
3917;BME280;1973;50.518;7.318;2023-04-19T07:18:54;101660.38;;;11.51;100.00
3917;BME280;1973;50.518;7.318;2023-04-19T07:21:20;101660.69;;;11.63;100.00
3917;BME280;1973;50.518;7.318;2023-04-19T07:23:47;101657.34;;;11.67;100.00
3917;BME280;1973;50.518;7.318;2023-04-19T07:26:13;101643.84;;;11.79;100.00
3917;BME280;1973;50.518;7.318;2023-04-19T07:28:40;101641.34;;;11.84;100.00
3917;BME280;1973;50.518;7.318;2023-04-19T07:31:06;101638.59;;;11.91;100.00
3917;BME280;1973;50.518;7.318;2023-04-19T07:33:33;101636.78;;;12.04;100.00
3917;BME280;1973;50.518;7.318;2023-04-19T07:36:00;101640.22;;;12.19;100.00
3917;BME280;1973;50.518;7.318;2023-04-19T07:38:26;101626.75;;;12.38;100.00
3917;BME280;1973;50.518;7.318;2023-04-19T07:40:53;101632.91;;;12.53;100.00
3917;BME280;1973;50.518;7.318;2023-04-19T07:43:19;101620.88;;;12.67;100.00
3917;BME280;1973;50.518;7.318;2023-04-19T07:45:46;101627.47;;;12.79;100.00
3917;BME280;1973;50.518;7.318;2023-04-19T07:48:12;101621.97;;;12.92;100.00
3917;BME280;1973;50.518;7.318;2023-04-19T07:50:39;101625.16;;;13.02;100.00
3917;BME280;1973;50.518;7.318;2023-04-19T07:53:05;101616.28;;;13.13;100.00
3917;BME280;1973;50.518;7.318;2023-04-19T07:55:32;101613.72;;;13.25;100.00
3917;BME280;1973;50.518;7.318;2023-04-19T07:57:59;101598.38;;;13.36;100.00
3917;BME280;1973;50.518;7.318;2023-04-19T08:00:26;101593.28;;;13.46;100.00
3917;BME280;1973;50.518;7.318;2023-04-19T08:02:55;101596.25;;;13.51;100.00
3917;BME280;1973;50.518;7.318;2023-04-19T08:05:25;101602.41;;;13.53;100.00
3917;BME280;1973;50.518;7.318;2023-04-19T08:07:52;101600.91;;;13.57;100.00
3917;BME280;1973;50.518;7.318;2023-04-19T08:10:19;101603.69;;;13.57;100.00
3917;BME280;1973;50.518;7.318;2023-04-19T08:12:48;101594.97;;;13.53;100.00
3917;BME280;1973;50.518;7.318;2023-04-19T08:15:32;101594.75;;;13.55;100.00
3917;BME280;1973;50.518;7.318;2023-04-19T08:18:02;101600.47;;;13.60;100.00
3917;BME280;1973;50.518;7.318;2023-04-19T08:20:31;101598.78;;;13.65;100.00
3917;BME280;1973;50.518;7.318;2023-04-19T08:22:58;101595.81;;;13.67;100.00
3917;BME280;1973;50.518;7.318;2023-04-19T08:25:36;101600.47;;;13.73;100.00
3917;BME280;1973;50.518;7.318;2023-04-19T08:28:03;101605.97;;;13.80;100.00
3917;BME280;1973;50.518;7.318;2023-04-19T08:30:30;101598.09;;;13.83;100.00
3917;BME280;1973;50.518;7.318;2023-04-19T08:32:57;101595.28;;;13.90;100.00
3917;BME280;1973;50.518;7.318;2023-04-19T08:35:23;101592.06;;;13.99;100.00
3917;BME280;1973;50.518;7.318;2023-04-19T08:37:50;101586.72;;;14.11;100.00
3917;BME280;1973;50.518;7.318;2023-04-19T08:40:17;101581.53;;;14.21;100.00
3917;BME280;1973;50.518;7.318;2023-04-19T08:42:44;101577.66;;;14.35;100.00
3917;BME280;1973;50.518;7.318;2023-04-19T08:45:11;101571.63;;;14.45;100.00
3917;BME280;1973;50.518;7.318;2023-04-19T08:47:55;101568.59;;;14.53;100.00
3917;BME280;1973;50.518;7.318;2023-04-19T08:50:28;101563.72;;;14.55;100.00
3917;BME280;1973;50.518;7.318;2023-04-19T08:52:58;101564.25;;;14.63;100.00
3917;BME280;1973;50.518;7.318;2023-04-19T08:55:41;101561.22;;;14.72;100.00
3917;BME280;1973;50.518;7.318;2023-04-19T08:58:31;101562.03;;;14.79;100.00
3917;BME280;1973;50.518;7.318;2023-04-19T09:01:18;101552.59;;;14.86;100.00
3917;BME280;1973;50.518;7.318;2023-04-19T09:04:01;101547.63;;;14.95;100.00
3917;BME280;1973;50.518;7.318;2023-04-19T09:06:47;101541.88;;;14.96;100.00
3917;BME280;1973;50.518;7.318;2023-04-19T09:09:19;101544.34;;;15.04;100.00
3917;BME280;1973;50.518;7.318;2023-04-19T09:12:15;101542.66;;;15.03;100.00
3917;BME280;1973;50.518;7.318;2023-04-19T09:14:44;101545.13;;;15.11;100.00
3917;BME280;1973;50.518;7.318;2023-04-19T09:17:25;101540.38;;;15.19;100.00
3917;BME280;1973;50.518;7.318;2023-04-19T09:19:52;101536.44;;;15.26;100.00
3917;BME280;1973;50.518;7.318;2023-04-19T09:22:18;101539.78;;;15.35;100.00
3917;BME280;1973;50.518;7.318;2023-04-19T09:24:44;101525.16;;;15.46;100.00
3917;BME280;1973;50.518;7.318;2023-04-19T09:27:34;101526.81;;;15.53;100.00
3917;BME280;1973;50.518;7.318;2023-04-19T09:30:03;101535.69;;;15.62;100.00
3917;BME280;1973;50.518;7.318;2023-04-19T09:32:44;101532.63;;;15.70;97.39
3917;BME280;1973;50.518;7.318;2023-04-19T09:35:12;101531.03;;;15.74;100.00
3917;BME280;1973;50.518;7.318;2023-04-19T09:37:38;101532.91;;;15.80;100.00
3917;BME280;1973;50.518;7.318;2023-04-19T09:40:27;101525.03;;;15.95;99.86
3917;BME280;1973;50.518;7.318;2023-04-19T09:42:53;101513.13;;;16.06;99.84
3917;BME280;1973;50.518;7.318;2023-04-19T09:45:23;101523.31;;;16.13;97.68
3917;BME280;1973;50.518;7.318;2023-04-19T09:48:04;101520.03;;;16.16;87.59
3917;BME280;1973;50.518;7.318;2023-04-19T09:50:32;101515.50;;;16.21;92.42
3917;BME280;1973;50.518;7.318;2023-04-19T09:53:17;101511.22;;;16.19;89.72
3917;BME280;1973;50.518;7.318;2023-04-19T09:55:45;101513.31;;;16.23;87.65
3917;BME280;1973;50.518;7.318;2023-04-19T09:58:26;101504.50;;;16.26;86.03
3917;BME280;1973;50.518;7.318;2023-04-19T10:01:03;101498.50;;;16.29;83.66
3917;BME280;1973;50.518;7.318;2023-04-19T10:03:33;101494.31;;;16.50;80.49
3917;BME280;1973;50.518;7.318;2023-04-19T10:06:01;101496.56;;;16.71;79.03
3917;BME280;1973;50.518;7.318;2023-04-19T10:08:48;101499.25;;;16.89;77.34
3917;BME280;1973;50.518;7.318;2023-04-19T10:11:15;101502.03;;;16.89;75.16
3917;BME280;1973;50.518;7.318;2023-04-19T10:13:44;101490.19;;;16.94;72.30
3917;BME280;1973;50.518;7.318;2023-04-19T10:16:12;101493.59;;;16.96;70.84
3917;BME280;1973;50.518;7.318;2023-04-19T10:18:47;101491.53;;;17.15;70.05
3917;BME280;1973;50.518;7.318;2023-04-19T10:21:15;101492.38;;;17.38;66.23
3917;BME280;1973;50.518;7.318;2023-04-19T10:23:42;101467.91;;;17.64;64.67
3917;BME280;1973;50.518;7.318;2023-04-19T10:26:09;101465.03;;;17.98;63.20
3917;BME280;1973;50.518;7.318;2023-04-19T10:28:35;101467.97;;;18.37;62.85
3917;BME280;1973;50.518;7.318;2023-04-19T10:31:03;101459.53;;;18.48;59.62
3917;BME280;1973;50.518;7.318;2023-04-19T10:33:35;101466.84;;;18.66;56.08
3917;BME280;1973;50.518;7.318;2023-04-19T10:36:02;101463.66;;;18.74;56.41
3917;BME280;1973;50.518;7.318;2023-04-19T10:38:40;101471.78;;;18.92;49.47
3917;BME280;1973;50.518;7.318;2023-04-19T10:41:08;101461.78;;;18.96;54.41
3917;BME280;1973;50.518;7.318;2023-04-19T10:43:46;101464.47;;;19.25;54.51
3917;BME280;1973;50.518;7.318;2023-04-19T10:46:14;101465.13;;;19.32;52.85
3917;BME280;1973;50.518;7.318;2023-04-19T10:48:56;101458.81;;;19.20;46.74
3917;BME280;1973;50.518;7.318;2023-04-19T10:51:28;101452.47;;;19.24;48.67
3917;BME280;1973;50.518;7.318;2023-04-19T10:53:58;101443.47;;;19.39;49.94
3917;BME280;1973;50.518;7.318;2023-04-19T11:01:39;101447.34;;;19.38;41.79
3917;BME280;1973;50.518;7.318;2023-04-19T11:04:07;101426.09;;;19.37;44.79
3917;BME280;1973;50.518;7.318;2023-04-19T11:06:35;101432.16;;;19.29;44.83
3917;BME280;1973;50.518;7.318;2023-04-19T11:09:02;101430.59;;;19.38;45.01
3917;BME280;1973;50.518;7.318;2023-04-19T11:11:34;101426.53;;;19.46;41.60
3917;BME280;1973;50.518;7.318;2023-04-19T11:14:06;101422.78;;;19.57;41.88
3917;BME280;1973;50.518;7.318;2023-04-19T11:16:34;101414.91;;;19.75;43.84
3917;BME280;1973;50.518;7.318;2023-04-19T11:19:15;101401.41;;;19.94;42.03
3917;BME280;1973;50.518;7.318;2023-04-19T11:21:45;101408.81;;;20.05;42.64
3917;BME280;1973;50.518;7.318;2023-04-19T11:24:11;101402.69;;;20.08;42.85
3917;BME280;1973;50.518;7.318;2023-04-19T11:26:41;101397.72;;;20.15;41.14
3917;BME280;1973;50.518;7.318;2023-04-19T11:29:09;101395.84;;;20.21;41.67
3917;BME280;1973;50.518;7.318;2023-04-19T11:31:35;101403.16;;;20.27;41.34
3917;BME280;1973;50.518;7.318;2023-04-19T11:34:02;101404.91;;;20.33;41.65
3917;BME280;1973;50.518;7.318;2023-04-19T11:36:30;101391.53;;;20.40;41.10
3917;BME280;1973;50.518;7.318;2023-04-19T11:38:57;101382.84;;;20.36;40.76
3917;BME280;1973;50.518;7.318;2023-04-19T11:41:23;101382.09;;;20.46;39.98
3917;BME280;1973;50.518;7.318;2023-04-19T11:43:50;101376.03;;;20.59;39.39
3917;BME280;1973;50.518;7.318;2023-04-19T11:46:17;101373.59;;;20.68;39.54
3917;BME280;1973;50.518;7.318;2023-04-19T11:48:51;101373.31;;;20.64;36.41
3917;BME280;1973;50.518;7.318;2023-04-19T11:51:18;101376.75;;;20.76;37.81
3917;BME280;1973;50.518;7.318;2023-04-19T11:53:45;101366.78;;;20.91;37.28
3917;BME280;1973;50.518;7.318;2023-04-19T11:56:12;101359.56;;;21.05;36.49
3917;BME280;1973;50.518;7.318;2023-04-19T11:58:45;101351.84;;;21.22;34.29
3917;BME280;1973;50.518;7.318;2023-04-19T12:01:19;101356.06;;;21.24;32.29
3917;BME280;1973;50.518;7.318;2023-04-19T12:03:46;101356.13;;;21.34;33.98
3917;BME280;1973;50.518;7.318;2023-04-19T12:06:17;101347.97;;;21.33;33.27
3917;BME280;1973;50.518;7.318;2023-04-19T12:08:46;101352.72;;;21.32;34.17
3917;BME280;1973;50.518;7.318;2023-04-19T12:11:13;101348.63;;;21.50;33.99
3917;BME280;1973;50.518;7.318;2023-04-19T12:13:40;101349.69;;;21.44;32.95
3917;BME280;1973;50.518;7.318;2023-04-19T12:16:10;101352.25;;;21.46;33.23
3917;BME280;1973;50.518;7.318;2023-04-19T12:18:48;101362.03;;;21.48;30.46
3917;BME280;1973;50.518;7.318;2023-04-19T12:21:29;101343.31;;;21.54;29.28
3917;BME280;1973;50.518;7.318;2023-04-19T12:23:59;101337.13;;;21.62;31.49
3917;BME280;1973;50.518;7.318;2023-04-19T12:26:27;101335.72;;;21.49;31.14
3917;BME280;1973;50.518;7.318;2023-04-19T12:28:55;101335.13;;;21.47;31.51
3917;BME280;1973;50.518;7.318;2023-04-19T12:31:22;101340.19;;;21.45;30.88
3917;BME280;1973;50.518;7.318;2023-04-19T12:33:49;101335.13;;;21.42;30.64
3917;BME280;1973;50.518;7.318;2023-04-19T12:36:15;101347.78;;;21.50;30.17
3917;BME280;1973;50.518;7.318;2023-04-19T12:38:42;101336.31;;;21.61;30.30
3917;BME280;1973;50.518;7.318;2023-04-19T12:41:09;101333.53;;;21.71;30.16
3917;BME280;1973;50.518;7.318;2023-04-19T12:43:36;101340.00;;;21.72;29.74
3917;BME280;1973;50.518;7.318;2023-04-19T12:46:03;101323.81;;;21.94;29.28
3917;BME280;1973;50.518;7.318;2023-04-19T12:48:30;101318.75;;;22.21;29.88
3917;BME280;1973;50.518;7.318;2023-04-19T12:50:56;101321.84;;;22.40;29.23
3917;BME280;1973;50.518;7.318;2023-04-19T12:53:23;101308.94;;;22.49;28.67
3917;BME280;1973;50.518;7.318;2023-04-19T12:55:50;101309.50;;;22.61;27.93
3917;BME280;1973;50.518;7.318;2023-04-19T12:58:17;101322.97;;;22.64;27.98
3917;BME280;1973;50.518;7.318;2023-04-19T13:00:44;101307.81;;;22.60;27.79
3917;BME280;1973;50.518;7.318;2023-04-19T13:03:10;101305.28;;;22.59;27.85
3917;BME280;1973;50.518;7.318;2023-04-19T13:05:38;101294.91;;;22.49;27.79
3917;BME280;1973;50.518;7.318;2023-04-19T13:08:04;101303.63;;;22.12;27.63
3917;BME280;1973;50.518;7.318;2023-04-19T13:10:31;101300.25;;;22.15;27.76
3917;BME280;1973;50.518;7.318;2023-04-19T13:12:57;101298.00;;;22.07;28.72
3917;BME280;1973;50.518;7.318;2023-04-19T13:15:26;101277.81;;;22.15;27.91
3917;BME280;1973;50.518;7.318;2023-04-19T13:17:54;101268.81;;;22.33;28.51